createdAt,value
2022-10-22T00:01:22.529Z,99999.94
2022-10-22T00:09:05.645Z,99989.31
2022-10-22T00:16:30.200Z,100004.06
2022-10-22T00:20:20.660Z,100004.72
2022-10-22T00:33:08.421Z,99986.31
2022-10-22T00:36:39.833Z,100004.47
2022-10-22T00:40:58.766Z,100014.50
2022-10-22T00:49:48.889Z,99998.34
2022-10-22T00:53:35.488Z,100004.56
2022-10-22T00:57:00.696Z,100005.00
2022-10-22T01:01:06.033Z,99988.34
2022-10-22T01:04:11.703Z,99985.28
2022-10-22T01:07:51.925Z,99968.88
2022-10-22T01:24:19.304Z,99964.94
2022-10-22T01:27:32.807Z,99967.97
2022-10-22T01:30:47.210Z,99972.69
2022-10-22T01:33:52.311Z,99967.59
2022-10-22T01:36:56.694Z,99977.69
2022-10-22T01:40:01.788Z,99979.59
2022-10-22T01:43:07.208Z,99985.38
2022-10-22T01:46:13.854Z,99985.38
2022-10-22T01:49:23.475Z,99994.34
2022-10-22T01:52:34.534Z,100003.97
2022-10-22T01:55:47.062Z,100002.69
2022-10-22T01:58:57.266Z,99995.31
2022-10-22T02:02:07.092Z,99994.06
2022-10-22T02:05:16.182Z,99984.56
2022-10-22T02:08:22.763Z,99980.72
2022-10-22T02:11:25.262Z,99987.91
2022-10-22T02:14:30.780Z,99988.50
2022-10-22T02:17:38.109Z,99989.38
2022-10-22T02:20:43.130Z,99988.25
2022-10-22T02:23:46.661Z,99985.59
2022-10-22T02:26:56.792Z,99982.66
2022-10-22T02:30:03.896Z,99976.81
2022-10-22T02:33:12.650Z,99979.13
2022-10-22T02:36:17.798Z,99984.94
2022-10-22T02:39:21.851Z,99995.47
2022-10-22T02:42:26.288Z,99997.50
2022-10-22T02:45:28.938Z,99993.00
2022-10-22T02:48:32.837Z,99991.25
2022-10-22T02:51:35.626Z,99988.78
2022-10-22T02:54:38.117Z,99990.31
2022-10-22T02:57:40.810Z,99989.03
2022-10-22T03:00:43.542Z,99987.75
2022-10-22T03:03:47.399Z,99991.72
2022-10-22T03:06:50.116Z,100000.47
2022-10-22T03:09:52.606Z,100005.66
2022-10-22T03:12:55.132Z,100006.84
2022-10-22T03:15:57.701Z,100006.94
2022-10-22T03:19:02.490Z,100007.44
2022-10-22T03:22:10.040Z,100005.75
2022-10-22T03:25:17.148Z,100004.81
2022-10-22T03:28:19.792Z,100001.41
2022-10-22T03:31:22.351Z,100002.53
2022-10-22T03:34:26.165Z,99998.47
2022-10-22T03:37:30.204Z,100006.88
2022-10-22T03:40:32.758Z,100005.75
2022-10-22T03:43:35.515Z,100006.75
2022-10-22T03:46:37.969Z,99999.03
2022-10-22T03:49:41.765Z,99999.56
2022-10-22T03:52:44.269Z,100003.72
2022-10-22T03:55:46.751Z,100013.47
2022-10-22T03:58:49.233Z,100016.22
2022-10-22T04:01:51.789Z,100008.63
2022-10-22T04:04:55.579Z,100012.91
2022-10-22T04:07:58.069Z,100017.06
2022-10-22T04:11:00.556Z,100014.75
2022-10-22T04:14:03.043Z,100028.94
2022-10-22T04:17:05.514Z,100021.13
2022-10-22T04:20:10.705Z,100018.25
2022-10-22T04:23:13.553Z,100033.69
2022-10-22T04:26:16.913Z,100030.53
2022-10-22T04:29:19.385Z,100038.19
2022-10-22T04:32:21.873Z,100039.63
2022-10-22T04:38:33.111Z,100041.66
2022-10-22T04:41:38.082Z,100040.53
2022-10-22T04:44:40.551Z,100034.59
2022-10-22T04:47:43.238Z,100035.56
2022-10-22T04:50:47.302Z,100033.75
2022-10-22T04:53:49.858Z,100021.66
2022-10-22T04:56:52.340Z,100033.59
2022-10-22T04:59:54.814Z,100038.53
2022-10-22T05:02:57.290Z,100039.13
2022-10-22T05:06:03.242Z,100038.41
2022-10-22T05:09:09.185Z,100035.66
2022-10-22T05:12:11.769Z,100031.72
2022-10-22T05:15:14.226Z,100044.97
2022-10-22T05:18:19.007Z,100037.34
2022-10-22T05:21:25.681Z,100041.94
2022-10-22T05:24:29.551Z,100039.00
2022-10-22T05:27:32.033Z,100042.38
2022-10-22T05:30:34.509Z,100042.19
2022-10-22T05:33:37.034Z,100048.59
2022-10-22T05:36:41.449Z,100044.13
2022-10-22T05:39:43.926Z,100047.91
2022-10-22T05:42:46.395Z,100052.34
2022-10-22T05:45:48.865Z,100052.72
2022-10-22T05:48:51.655Z,100047.41
2022-10-22T05:51:55.454Z,100046.44
2022-10-22T05:54:57.924Z,100058.53
2022-10-22T05:58:00.390Z,100059.38
2022-10-22T06:01:07.126Z,100060.09
2022-10-22T06:04:12.905Z,100062.38
2022-10-22T06:07:17.361Z,100065.25
2022-10-22T06:10:22.309Z,100068.25
2022-10-22T06:13:24.897Z,100068.00
2022-10-22T06:16:30.446Z,100059.16
2022-10-22T06:19:32.939Z,100063.00
2022-10-22T06:22:38.087Z,100059.22
2022-10-22T06:25:40.597Z,100074.81
2022-10-22T06:28:43.100Z,100072.16
2022-10-22T06:31:45.620Z,100074.00
2022-10-22T06:34:48.228Z,100074.41
2022-10-22T06:37:52.034Z,100083.72
2022-10-22T06:40:54.472Z,100086.06
2022-10-22T06:43:57.811Z,100089.88
2022-10-22T06:47:00.830Z,100088.09
2022-10-22T06:50:03.451Z,100098.88
2022-10-22T06:53:07.293Z,100098.19
2022-10-22T06:56:11.885Z,100101.72
2022-10-22T06:59:14.350Z,100104.56
2022-10-22T07:02:16.825Z,100116.88
2022-10-22T07:05:19.376Z,100109.91
2022-10-22T07:08:23.232Z,100111.72
2022-10-22T07:11:27.334Z,100110.22
2022-10-22T07:14:29.899Z,100107.69
2022-10-22T07:17:32.387Z,100124.41
2022-10-22T07:20:34.904Z,100123.50
2022-10-22T07:23:39.308Z,100125.13
2022-10-22T07:26:41.786Z,100127.25
2022-10-22T07:29:44.264Z,100120.75
2022-10-22T07:32:46.766Z,100125.03
2022-10-22T07:35:49.291Z,100127.91
2022-10-22T07:38:57.509Z,100142.28
2022-10-22T07:41:59.998Z,100125.06
2022-10-22T07:45:02.460Z,100125.06
2022-10-22T07:48:05.465Z,100135.38
2022-10-22T07:51:08.260Z,100136.31
2022-10-22T07:54:12.051Z,100138.00
2022-10-22T07:57:14.609Z,100142.94
2022-10-22T08:00:19.449Z,100156.25
2022-10-22T08:03:24.352Z,100160.88
2022-10-22T08:06:26.846Z,100160.19
2022-10-22T08:09:30.648Z,100171.06
2022-10-22T08:12:33.116Z,100174.41
2022-10-22T08:15:36.206Z,100185.97
2022-10-22T08:18:39.484Z,100178.69
2022-10-22T08:21:41.948Z,100191.91
2022-10-22T08:24:45.765Z,100180.31
2022-10-22T08:27:48.547Z,100184.84
2022-10-22T08:30:51.041Z,100179.47
2022-10-22T08:33:53.734Z,100176.84
2022-10-22T08:36:56.630Z,100184.41
2022-10-22T08:40:00.456Z,100179.16
2022-10-22T08:43:22.429Z,100174.63
2022-10-22T08:46:34.508Z,100168.72
2022-10-22T08:49:41.341Z,100179.22
2022-10-22T08:52:47.454Z,100182.53
2022-10-22T08:55:54.921Z,100185.41
2022-10-22T08:59:02.034Z,100179.91
2022-10-22T09:02:14.462Z,100185.97
2022-10-22T09:05:31.695Z,100194.97
2022-10-22T09:08:35.243Z,100193.97
2022-10-22T09:11:42.017Z,100197.25
2022-10-22T09:14:44.710Z,100190.34
2022-10-22T09:17:59.578Z,100192.16
2022-10-22T09:21:13.278Z,100203.44
2022-10-22T09:24:27.486Z,100209.56
2022-10-22T09:27:33.414Z,100213.94
2022-10-22T09:30:37.983Z,100212.25
2022-10-22T09:33:41.776Z,100217.34
2022-10-22T09:36:44.283Z,100221.38
2022-10-22T09:39:49.121Z,100227.47
2022-10-22T09:42:52.937Z,100226.31
2022-10-22T09:46:00.482Z,100239.13
2022-10-22T09:49:07.441Z,100231.28
2022-10-22T09:52:36.474Z,100239.41
2022-10-22T09:55:39.569Z,100238.47
2022-10-22T09:58:45.888Z,100238.72
2022-10-22T10:01:48.516Z,100250.03
2022-10-22T10:04:57.192Z,100245.06
2022-10-22T10:08:01.829Z,100249.53
2022-10-22T10:11:11.700Z,100249.94
2022-10-22T10:14:21.227Z,100259.22
2022-10-22T10:17:37.576Z,100253.34
2022-10-22T10:20:48.435Z,100264.53
2022-10-22T10:23:58.932Z,100258.78
2022-10-22T10:27:10.181Z,100254.50
2022-10-22T10:30:17.860Z,100251.72
2022-10-22T10:33:34.234Z,100251.41
2022-10-22T10:36:45.448Z,100253.06
2022-10-22T10:40:04.730Z,100253.00
2022-10-22T10:56:39.907Z,100256.06
2022-10-22T11:00:06.252Z,100256.00
2022-10-22T11:03:49.819Z,100257.06
2022-10-22T11:07:10.679Z,100261.78
2022-10-22T11:10:28.592Z,100264.00
2022-10-22T11:13:38.678Z,100263.63
2022-10-22T11:16:47.056Z,100261.25
2022-10-22T11:19:59.939Z,100254.91
2022-10-22T11:23:22.143Z,100261.34
2022-10-22T11:26:36.752Z,100248.03
2022-10-22T11:29:45.340Z,100245.56
2022-10-22T11:32:50.785Z,100254.19
2022-10-22T11:35:54.220Z,100253.78
2022-10-22T11:38:56.970Z,100256.00
2022-10-22T11:42:00.481Z,100251.63
2022-10-22T11:45:07.149Z,100250.72
2022-10-22T11:48:18.882Z,100261.75
2022-10-22T11:51:32.797Z,100252.31
2022-10-22T11:54:43.533Z,100270.25
2022-10-22T11:57:48.812Z,100269.34
2022-10-22T12:00:52.669Z,100268.44
2022-10-22T12:04:21.393Z,100271.97
2022-10-22T12:07:34.356Z,100277.75
2022-10-22T12:10:49.947Z,100272.38
2022-10-22T12:13:59.444Z,100277.19
2022-10-22T12:17:10.733Z,100279.97
2022-10-22T12:20:17.568Z,100276.59
2022-10-22T12:23:22.015Z,100278.09
2022-10-22T12:26:27.069Z,100281.53
2022-10-22T12:29:32.583Z,100285.56
2022-10-22T12:32:38.346Z,100278.31
2022-10-22T12:35:45.306Z,100271.19
2022-10-22T12:38:48.397Z,100281.78
2022-10-22T12:41:53.000Z,100271.88
2022-10-22T12:44:56.769Z,100287.59
2022-10-22T12:48:02.995Z,100284.22
2022-10-22T12:51:09.453Z,100282.25
2022-10-22T12:54:22.373Z,100278.59
2022-10-22T12:57:26.184Z,100291.84
2022-10-22T13:00:34.474Z,100282.78
2022-10-22T13:03:43.412Z,100284.69
2022-10-22T13:06:47.025Z,100296.34
2022-10-22T13:09:59.063Z,100284.13
2022-10-22T13:13:03.246Z,100278.09
2022-10-22T13:16:20.430Z,100285.41
2022-10-22T13:19:40.241Z,100290.63
2022-10-22T13:22:54.488Z,100281.19
2022-10-22T13:26:03.910Z,100284.38
2022-10-22T13:29:14.628Z,100288.00
2022-10-22T13:32:30.537Z,100295.16
2022-10-22T13:35:37.810Z,100286.72
2022-10-22T13:38:40.358Z,100287.59
2022-10-22T13:41:42.892Z,100294.09
2022-10-22T13:44:45.465Z,100286.47
2022-10-22T13:47:51.755Z,100286.56
2022-10-22T13:50:55.654Z,100289.34
2022-10-22T13:53:58.452Z,100286.84
2022-10-22T13:57:00.969Z,100291.63
2022-10-22T14:00:03.479Z,100288.69
2022-10-22T14:03:06.596Z,100289.09
2022-10-22T14:06:14.578Z,100280.94
2022-10-22T14:09:17.314Z,100285.63
2022-10-22T14:12:19.885Z,100283.75
2022-10-22T14:15:24.743Z,100287.25
2022-10-22T14:18:31.662Z,100285.97
2022-10-22T14:21:38.265Z,100301.91
2022-10-22T14:24:40.712Z,100296.88
2022-10-22T14:27:43.615Z,100297.47
2022-10-22T14:30:47.357Z,100300.22
2022-10-22T14:33:50.438Z,100308.44
2022-10-22T14:36:54.346Z,100312.34
2022-10-22T14:40:01.691Z,100309.88
2022-10-22T14:43:04.479Z,100310.56
2022-10-22T14:46:06.977Z,100312.97
2022-10-22T14:49:09.537Z,100321.75
2022-10-22T14:52:14.913Z,100314.09
2022-10-22T14:55:19.940Z,100315.97
2022-10-22T14:58:22.417Z,100321.31
2022-10-22T15:01:24.914Z,100330.22
2022-10-22T15:04:28.178Z,100325.81
2022-10-22T15:07:32.038Z,100335.41
2022-10-22T15:10:34.668Z,100326.94
2022-10-22T15:13:37.152Z,100330.03
2022-10-22T15:16:39.654Z,100329.03
2022-10-22T15:19:43.476Z,100335.59
2022-10-22T15:22:47.288Z,100332.91
2022-10-22T15:25:49.841Z,100332.28
2022-10-22T15:28:52.316Z,100334.06
2022-10-22T15:31:57.792Z,100335.75
2022-10-22T15:35:00.731Z,100339.22
2022-10-22T15:38:06.512Z,100341.16
2022-10-22T15:41:12.341Z,100344.41
2022-10-22T15:44:17.378Z,100333.16
2022-10-22T15:47:19.837Z,100344.28
2022-10-22T15:50:22.353Z,100348.28
2022-10-22T15:53:26.152Z,100351.34
2022-10-22T15:56:30.630Z,100354.31
2022-10-22T15:59:33.239Z,100348.44
2022-10-22T16:02:35.754Z,100351.31
2022-10-22T16:05:38.239Z,100348.78
2022-10-22T16:08:42.054Z,100348.78
2022-10-22T16:11:45.397Z,100354.53
2022-10-22T16:14:50.827Z,100360.09
2022-10-22T16:17:53.270Z,100360.47
2022-10-22T16:20:55.737Z,100357.56
2022-10-22T16:24:06.002Z,100354.97
2022-10-22T16:27:09.766Z,100361.91
2022-10-22T16:30:13.387Z,100369.28
2022-10-22T16:33:15.836Z,100372.59
2022-10-22T16:36:20.247Z,100379.44
2022-10-22T16:39:24.524Z,100368.66
2022-10-22T16:42:27.077Z,100367.69
